CSN7520 ZBAD-ZHHH
Flight info
| Callsign | CSN7520 |
|---|---|
| Flight time | N/A |
| Altitude | 34100 |
| Route | OMD11D OMDEK W37 ENLAB ENL09A |
| Aircraft | A343/H-SDE2E3FGHIJ4J5M1RWXY/LB1D1 |
Departure
| Time | 2026-03-29 09:21 |
|---|---|
| Airport | Beijing Daxing International Airport (ZBAD) |
Arrival
| Time | N/A |
|---|---|
| Airport | Wuhan Tianhe International Airport (ZHHH) |
| Time | Latitude | Longitude | Altitude | Speed | Heading |
|---|---|---|---|---|---|
| 2026-03-29 08:47 | 39.51071 | 116.40508 | 112 ft | 0 kts | 9° |
| 2026-03-29 09:07 | 39.51070 | 116.40508 | 112 ft | 1 kts | 9° |
| 2026-03-29 09:08 | 39.51040 | 116.40502 | 110 ft | 5 kts | 9° |
| 2026-03-29 09:08 | 39.51012 | 116.40497 | 110 ft | 2 kts | 359° |
| 2026-03-29 09:08 | 39.50997 | 116.40496 | 109 ft | 2 kts | 336° |
| 2026-03-29 09:08 | 39.50990 | 116.40501 | 111 ft | 0 kts | 308° |
| 2026-03-29 09:11 | 39.50991 | 116.40500 | 111 ft | 1 kts | 308° |
| 2026-03-29 09:11 | 39.50998 | 116.40469 | 94 ft | 8 kts | 278° |
| 2026-03-29 09:11 | 39.50999 | 116.40369 | 110 ft | 13 kts | 271° |
| 2026-03-29 09:12 | 39.51000 | 116.40246 | 110 ft | 15 kts | 271° |
| 2026-03-29 09:12 | 39.50999 | 116.40106 | 110 ft | 16 kts | 266° |
| 2026-03-29 09:12 | 39.51006 | 116.39979 | 110 ft | 8 kts | 306° |
| 2026-03-29 09:12 | 39.51059 | 116.39943 | 109 ft | 11 kts | 347° |
| 2026-03-29 09:13 | 39.51153 | 116.39931 | 109 ft | 16 kts | 354° |
| 2026-03-29 09:13 | 39.51268 | 116.39917 | 111 ft | 17 kts | 353° |
| 2026-03-29 09:13 | 39.51377 | 116.39898 | 111 ft | 16 kts | 354° |
| 2026-03-29 09:13 | 39.51493 | 116.39882 | 112 ft | 17 kts | 354° |
| 2026-03-29 09:14 | 39.51609 | 116.39866 | 110 ft | 16 kts | 354° |
| 2026-03-29 09:14 | 39.51708 | 116.39830 | 110 ft | 11 kts | 314° |
| 2026-03-29 09:14 | 39.51707 | 116.39789 | 111 ft | 0 kts | 262° |
| 2026-03-29 09:19 | 39.51707 | 116.39783 | 111 ft | 3 kts | 262° |
| 2026-03-29 09:19 | 39.51700 | 116.39724 | 111 ft | 9 kts | 262° |
| 2026-03-29 09:20 | 39.51674 | 116.39642 | 110 ft | 8 kts | 214° |
| 2026-03-29 09:20 | 39.51620 | 116.39644 | 111 ft | 8 kts | 173° |
| 2026-03-29 09:20 | 39.51555 | 116.39654 | 110 ft | 17 kts | 173° |
| 2026-03-29 09:20 | 39.51199 | 116.39712 | 111 ft | 86 kts | 174° |
| 2026-03-29 09:21 | 39.50404 | 116.39834 | 112 ft | 141 kts | 173° |
| 2026-03-29 09:21 | 39.49278 | 116.40023 | 282 ft | 175 kts | 171° |
| 2026-03-29 09:21 | 39.48074 | 116.40222 | 980 ft | 176 kts | 173° |
| 2026-03-29 09:21 | 39.46807 | 116.40406 | 1496 ft | 194 kts | 172° |
| 2026-03-29 09:22 | 39.45364 | 116.40638 | 1850 ft | 226 kts | 172° |
| 2026-03-29 09:22 | 39.43698 | 116.40896 | 2394 ft | 252 kts | 172° |
| 2026-03-29 09:22 | 39.41913 | 116.41175 | 3258 ft | 264 kts | 172° |
| 2026-03-29 09:22 | 39.40069 | 116.41450 | 4313 ft | 269 kts | 173° |
| 2026-03-29 09:23 | 39.38196 | 116.41726 | 5391 ft | 273 kts | 173° |
| 2026-03-29 09:23 | 39.36285 | 116.42015 | 6391 ft | 280 kts | 173° |
| 2026-03-29 09:23 | 39.34325 | 116.42317 | 7351 ft | 286 kts | 173° |
| 2026-03-29 09:23 | 39.32334 | 116.42632 | 8353 ft | 290 kts | 173° |
| 2026-03-29 09:24 | 39.30331 | 116.42943 | 9336 ft | 295 kts | 174° |
| 2026-03-29 09:24 | 39.28276 | 116.43260 | 10255 ft | 300 kts | 174° |
| 2026-03-29 09:24 | 39.26145 | 116.43589 | 10770 ft | 319 kts | 174° |
| 2026-03-29 09:24 | 39.23902 | 116.43935 | 11149 ft | 339 kts | 174° |
| 2026-03-29 09:25 | 39.21491 | 116.44309 | 11516 ft | 359 kts | 174° |
| 2026-03-29 09:25 | 39.18946 | 116.44705 | 11905 ft | 376 kts | 174° |
| 2026-03-29 09:25 | 39.16313 | 116.45116 | 12536 ft | 385 kts | 175° |
| 2026-03-29 09:25 | 39.13628 | 116.45536 | 13301 ft | 391 kts | 175° |
| 2026-03-29 09:26 | 39.10906 | 116.45884 | 14055 ft | 394 kts | 180° |
| 2026-03-29 09:26 | 39.08202 | 116.45606 | 14756 ft | 394 kts | 195° |
| 2026-03-29 09:26 | 39.05641 | 116.44409 | 15504 ft | 391 kts | 212° |
| 2026-03-29 09:26 | 39.03345 | 116.42557 | 16297 ft | 390 kts | 218° |
| 2026-03-29 09:27 | 39.01110 | 116.40553 | 17071 ft | 393 kts | 219° |
| 2026-03-29 09:27 | 38.98866 | 116.38531 | 17861 ft | 395 kts | 219° |
| 2026-03-29 09:27 | 38.96605 | 116.36505 | 18568 ft | 398 kts | 219° |
| 2026-03-29 09:27 | 38.94321 | 116.34468 | 19213 ft | 401 kts | 220° |
| 2026-03-29 09:28 | 38.92019 | 116.32423 | 19852 ft | 404 kts | 220° |
| 2026-03-29 09:28 | 38.89696 | 116.30363 | 20503 ft | 407 kts | 220° |
| 2026-03-29 09:28 | 38.87354 | 116.28290 | 21105 ft | 411 kts | 220° |
| 2026-03-29 09:28 | 38.84989 | 116.26198 | 21721 ft | 414 kts | 220° |
| 2026-03-29 09:29 | 38.82605 | 116.24096 | 22344 ft | 417 kts | 220° |
| 2026-03-29 09:29 | 38.80206 | 116.21988 | 22954 ft | 419 kts | 220° |
| 2026-03-29 09:29 | 38.77795 | 116.19867 | 23509 ft | 422 kts | 221° |
| 2026-03-29 09:29 | 38.75367 | 116.17734 | 24029 ft | 424 kts | 221° |